sensor_id;sensor_type;location;lat;lon;timestamp;temperature;humidity
17988;DHT22;9119;50.932;5.342;2023-02-15T00:01:36;5.30;99.90
17988;DHT22;9119;50.932;5.342;2023-02-15T00:04:03;5.20;99.90
17988;DHT22;9119;50.932;5.342;2023-02-15T00:06:29;5.20;99.90
17988;DHT22;9119;50.932;5.342;2023-02-15T00:08:55;5.20;99.90
17988;DHT22;9119;50.932;5.342;2023-02-15T00:11:21;5.10;99.90
17988;DHT22;9119;50.932;5.342;2023-02-15T00:14:06;5.10;99.90
17988;DHT22;9119;50.932;5.342;2023-02-15T00:16:33;5.10;99.90
17988;DHT22;9119;50.932;5.342;2023-02-15T00:18:59;5.00;99.90
17988;DHT22;9119;50.932;5.342;2023-02-15T00:21:28;5.00;99.90
17988;DHT22;9119;50.932;5.342;2023-02-15T00:23:55;5.00;99.90
17988;DHT22;9119;50.932;5.342;2023-02-15T00:26:25;4.90;99.90
17988;DHT22;9119;50.932;5.342;2023-02-15T00:28:52;4.90;99.90
17988;DHT22;9119;50.932;5.342;2023-02-15T00:31:18;5.00;99.90
17988;DHT22;9119;50.932;5.342;2023-02-15T00:33:52;4.90;99.90
17988;DHT22;9119;50.932;5.342;2023-02-15T00:36:22;4.90;99.90
17988;DHT22;9119;50.932;5.342;2023-02-15T00:38:48;4.90;99.90
17988;DHT22;9119;50.932;5.342;2023-02-15T00:41:13;4.90;99.90
17988;DHT22;9119;50.932;5.342;2023-02-15T00:43:39;4.80;99.90
17988;DHT22;9119;50.932;5.342;2023-02-15T00:46:05;4.80;99.90
17988;DHT22;9119;50.932;5.342;2023-02-15T00:48:31;4.80;99.90
17988;DHT22;9119;50.932;5.342;2023-02-15T00:50:58;4.80;99.90
17988;DHT22;9119;50.932;5.342;2023-02-15T00:53:25;4.70;99.90
17988;DHT22;9119;50.932;5.342;2023-02-15T00:55:51;4.70;99.90
17988;DHT22;9119;50.932;5.342;2023-02-15T00:58:17;4.70;99.90
17988;DHT22;9119;50.932;5.342;2023-02-15T01:00:45;4.70;99.90
17988;DHT22;9119;50.932;5.342;2023-02-15T01:03:11;4.80;99.90
17988;DHT22;9119;50.932;5.342;2023-02-15T01:05:38;4.70;99.90
17988;DHT22;9119;50.932;5.342;2023-02-15T01:08:07;4.70;99.90
17988;DHT22;9119;50.932;5.342;2023-02-15T01:10:34;4.60;99.90
17988;DHT22;9119;50.932;5.342;2023-02-15T01:13:00;4.50;99.90
17988;DHT22;9119;50.932;5.342;2023-02-15T01:15:25;4.50;99.90
17988;DHT22;9119;50.932;5.342;2023-02-15T01:17:51;4.60;99.90
17988;DHT22;9119;50.932;5.342;2023-02-15T01:20:23;4.40;99.90
17988;DHT22;9119;50.932;5.342;2023-02-15T01:22:54;4.40;99.90
17988;DHT22;9119;50.932;5.342;2023-02-15T01:25:21;4.50;99.90
17988;DHT22;9119;50.932;5.342;2023-02-15T01:27:47;4.50;99.90
17988;DHT22;9119;50.932;5.342;2023-02-15T01:30:14;4.60;99.90
17988;DHT22;9119;50.932;5.342;2023-02-15T01:32:40;4.40;99.90
17988;DHT22;9119;50.932;5.342;2023-02-15T01:35:06;4.70;99.90
17988;DHT22;9119;50.932;5.342;2023-02-15T01:37:33;4.50;99.90
17988;DHT22;9119;50.932;5.342;2023-02-15T01:40:00;4.60;99.90
17988;DHT22;9119;50.932;5.342;2023-02-15T01:42:27;4.50;99.90
17988;DHT22;9119;50.932;5.342;2023-02-15T01:44:56;4.40;99.90
17988;DHT22;9119;50.932;5.342;2023-02-15T01:52:45;4.50;99.90
17988;DHT22;9119;50.932;5.342;2023-02-15T01:55:13;4.40;99.90
17988;DHT22;9119;50.932;5.342;2023-02-15T01:57:39;4.50;99.90
17988;DHT22;9119;50.932;5.342;2023-02-15T02:00:06;4.30;99.90
17988;DHT22;9119;50.932;5.342;2023-02-15T02:02:33;4.40;99.90
17988;DHT22;9119;50.932;5.342;2023-02-15T02:05:01;4.30;99.90
17988;DHT22;9119;50.932;5.342;2023-02-15T02:07:40;4.40;99.90
17988;DHT22;9119;50.932;5.342;2023-02-15T02:10:11;4.20;99.90
17988;DHT22;9119;50.932;5.342;2023-02-15T02:12:38;4.10;99.90
17988;DHT22;9119;50.932;5.342;2023-02-15T02:15:05;4.10;99.90
17988;DHT22;9119;50.932;5.342;2023-02-15T02:17:57;4.10;99.90
17988;DHT22;9119;50.932;5.342;2023-02-15T02:34:25;4.20;99.90
17988;DHT22;9119;50.932;5.342;2023-02-15T02:36:56;4.20;99.90
17988;DHT22;9119;50.932;5.342;2023-02-15T02:47:05;4.20;99.90
17988;DHT22;9119;50.932;5.342;2023-02-15T02:49:40;4.20;99.90
17988;DHT22;9119;50.932;5.342;2023-02-15T02:55:18;4.10;99.90
17988;DHT22;9119;50.932;5.342;2023-02-15T03:00:17;4.10;99.90
17988;DHT22;9119;50.932;5.342;2023-02-15T03:02:45;4.20;99.90
17988;DHT22;9119;50.932;5.342;2023-02-15T03:05:16;4.10;99.90
17988;DHT22;9119;50.932;5.342;2023-02-15T03:07:47;4.20;99.90
17988;DHT22;9119;50.932;5.342;2023-02-15T03:10:14;4.20;99.90
17988;DHT22;9119;50.932;5.342;2023-02-15T03:12:40;4.20;99.90
17988;DHT22;9119;50.932;5.342;2023-02-15T03:15:10;4.10;99.90
17988;DHT22;9119;50.932;5.342;2023-02-15T03:17:42;4.10;99.90
17988;DHT22;9119;50.932;5.342;2023-02-15T03:20:22;4.10;99.90
17988;DHT22;9119;50.932;5.342;2023-02-15T03:23:03;4.00;99.90
17988;DHT22;9119;50.932;5.342;2023-02-15T03:25:34;4.10;99.90
17988;DHT22;9119;50.932;5.342;2023-02-15T03:28:06;4.30;99.90
17988;DHT22;9119;50.932;5.342;2023-02-15T03:30:34;4.10;99.90
17988;DHT22;9119;50.932;5.342;2023-02-15T03:33:02;4.10;99.90
17988;DHT22;9119;50.932;5.342;2023-02-15T03:36:02;3.90;99.90
17988;DHT22;9119;50.932;5.342;2023-02-15T03:38:36;3.90;99.90
17988;DHT22;9119;50.932;5.342;2023-02-15T03:41:02;3.90;99.90
17988;DHT22;9119;50.932;5.342;2023-02-15T03:48:50;3.80;99.90
17988;DHT22;9119;50.932;5.342;2023-02-15T03:51:19;3.80;99.90
17988;DHT22;9119;50.932;5.342;2023-02-15T03:54:24;3.80;99.90
17988;DHT22;9119;50.932;5.342;2023-02-15T03:57:26;3.80;99.90
17988;DHT22;9119;50.932;5.342;2023-02-15T04:00:21;3.90;99.90
17988;DHT22;9119;50.932;5.342;2023-02-15T04:05:42;3.90;99.90
17988;DHT22;9119;50.932;5.342;2023-02-15T04:08:09;3.90;99.90
17988;DHT22;9119;50.932;5.342;2023-02-15T04:10:35;4.00;99.90
17988;DHT22;9119;50.932;5.342;2023-02-15T04:13:29;3.80;99.90
17988;DHT22;9119;50.932;5.342;2023-02-15T04:15:55;3.80;99.90
17988;DHT22;9119;50.932;5.342;2023-02-15T04:18:31;3.90;99.90
17988;DHT22;9119;50.932;5.342;2023-02-15T04:21:16;3.70;99.90
17988;DHT22;9119;50.932;5.342;2023-02-15T04:24:00;3.70;99.90
17988;DHT22;9119;50.932;5.342;2023-02-15T04:26:44;3.70;99.90
17988;DHT22;9119;50.932;5.342;2023-02-15T04:29:09;3.60;99.90
17988;DHT22;9119;50.932;5.342;2023-02-15T04:31:35;3.60;99.90
17988;DHT22;9119;50.932;5.342;2023-02-15T04:34:01;3.60;99.90
17988;DHT22;9119;50.932;5.342;2023-02-15T04:36:26;3.60;99.90
17988;DHT22;9119;50.932;5.342;2023-02-15T04:38:52;3.60;99.90
17988;DHT22;9119;50.932;5.342;2023-02-15T04:41:17;3.60;99.90
17988;DHT22;9119;50.932;5.342;2023-02-15T04:43:43;3.70;99.90
17988;DHT22;9119;50.932;5.342;2023-02-15T04:46:09;4.00;99.90
17988;DHT22;9119;50.932;5.342;2023-02-15T04:48:34;3.70;99.90
17988;DHT22;9119;50.932;5.342;2023-02-15T04:51:08;3.60;99.90
17988;DHT22;9119;50.932;5.342;2023-02-15T04:53:35;3.60;99.90
17988;DHT22;9119;50.932;5.342;2023-02-15T04:56:01;3.60;99.90
17988;DHT22;9119;50.932;5.342;2023-02-15T04:58:27;3.60;99.90
17988;DHT22;9119;50.932;5.342;2023-02-15T05:00:55;3.60;99.90
17988;DHT22;9119;50.932;5.342;2023-02-15T05:03:21;3.60;99.90
17988;DHT22;9119;50.932;5.342;2023-02-15T05:05:46;3.50;99.90
17988;DHT22;9119;50.932;5.342;2023-02-15T05:08:12;3.60;99.90
17988;DHT22;9119;50.932;5.342;2023-02-15T05:10:38;3.60;99.90
17988;DHT22;9119;50.932;5.342;2023-02-15T05:13:03;3.50;99.90
17988;DHT22;9119;50.932;5.342;2023-02-15T05:15:29;3.50;99.90
17988;DHT22;9119;50.932;5.342;2023-02-15T05:17:54;3.60;99.90
17988;DHT22;9119;50.932;5.342;2023-02-15T05:20:20;3.40;99.90
17988;DHT22;9119;50.932;5.342;2023-02-15T05:22:46;3.50;99.90
17988;DHT22;9119;50.932;5.342;2023-02-15T05:25:11;3.40;99.90
17988;DHT22;9119;50.932;5.342;2023-02-15T05:27:55;3.40;99.90
17988;DHT22;9119;50.932;5.342;2023-02-15T05:30:40;3.30;99.90
17988;DHT22;9119;50.932;5.342;2023-02-15T05:33:06;3.30;99.90
17988;DHT22;9119;50.932;5.342;2023-02-15T05:35:33;3.30;99.90
17988;DHT22;9119;50.932;5.342;2023-02-15T05:37:59;3.30;99.90
17988;DHT22;9119;50.932;5.342;2023-02-15T05:40:25;3.30;99.90
17988;DHT22;9119;50.932;5.342;2023-02-15T05:42:51;3.20;99.90
17988;DHT22;9119;50.932;5.342;2023-02-15T05:45:16;3.10;99.90
17988;DHT22;9119;50.932;5.342;2023-02-15T05:47:42;3.10;99.90
17988;DHT22;9119;50.932;5.342;2023-02-15T05:50:09;3.10;99.90
17988;DHT22;9119;50.932;5.342;2023-02-15T05:52:35;3.10;99.90
17988;DHT22;9119;50.932;5.342;2023-02-15T05:55:01;3.30;99.90
17988;DHT22;9119;50.932;5.342;2023-02-15T05:57:28;3.20;99.90
17988;DHT22;9119;50.932;5.342;2023-02-15T05:59:53;3.20;99.90
17988;DHT22;9119;50.932;5.342;2023-02-15T06:02:19;3.20;99.90
17988;DHT22;9119;50.932;5.342;2023-02-15T06:04:44;3.20;99.90
17988;DHT22;9119;50.932;5.342;2023-02-15T06:07:10;3.20;99.90
17988;DHT22;9119;50.932;5.342;2023-02-15T06:09:36;3.20;99.90
17988;DHT22;9119;50.932;5.342;2023-02-15T06:12:01;3.30;99.90
17988;DHT22;9119;50.932;5.342;2023-02-15T06:14:27;3.30;99.90
17988;DHT22;9119;50.932;5.342;2023-02-15T06:16:53;3.20;99.90
17988;DHT22;9119;50.932;5.342;2023-02-15T06:19:18;3.20;99.90
17988;DHT22;9119;50.932;5.342;2023-02-15T06:21:44;3.20;99.90
17988;DHT22;9119;50.932;5.342;2023-02-15T06:24:10;3.40;99.90
17988;DHT22;9119;50.932;5.342;2023-02-15T06:26:36;3.20;99.90
17988;DHT22;9119;50.932;5.342;2023-02-15T06:29:01;3.20;99.90
17988;DHT22;9119;50.932;5.342;2023-02-15T06:31:27;3.10;99.90
17988;DHT22;9119;50.932;5.342;2023-02-15T06:33:53;3.20;99.90
17988;DHT22;9119;50.932;5.342;2023-02-15T06:36:26;3.20;99.90
17988;DHT22;9119;50.932;5.342;2023-02-15T06:38:52;3.20;99.90
17988;DHT22;9119;50.932;5.342;2023-02-15T06:41:18;3.20;99.90
17988;DHT22;9119;50.932;5.342;2023-02-15T06:43:44;3.10;99.90
17988;DHT22;9119;50.932;5.342;2023-02-15T06:46:09;3.10;99.90
17988;DHT22;9119;50.932;5.342;2023-02-15T06:48:35;3.30;99.90
17988;DHT22;9119;50.932;5.342;2023-02-15T06:51:01;3.10;99.90
17988;DHT22;9119;50.932;5.342;2023-02-15T06:53:26;3.00;99.90
17988;DHT22;9119;50.932;5.342;2023-02-15T06:55:52;3.10;99.90
17988;DHT22;9119;50.932;5.342;2023-02-15T06:58:17;3.00;99.90
17988;DHT22;9119;50.932;5.342;2023-02-15T07:00:43;3.10;99.90
17988;DHT22;9119;50.932;5.342;2023-02-15T07:03:09;3.30;99.90
17988;DHT22;9119;50.932;5.342;2023-02-15T07:05:34;3.30;99.90
17988;DHT22;9119;50.932;5.342;2023-02-15T07:08:00;3.30;99.90
17988;DHT22;9119;50.932;5.342;2023-02-15T07:10:27;3.10;99.90
17988;DHT22;9119;50.932;5.342;2023-02-15T07:12:53;3.20;99.90
17988;DHT22;9119;50.932;5.342;2023-02-15T07:15:19;3.20;99.90
17988;DHT22;9119;50.932;5.342;2023-02-15T07:17:48;3.20;99.90
17988;DHT22;9119;50.932;5.342;2023-02-15T07:20:18;3.20;99.90
17988;DHT22;9119;50.932;5.342;2023-02-15T07:22:44;3.20;99.90
17988;DHT22;9119;50.932;5.342;2023-02-15T07:25:11;3.50;99.90
17988;DHT22;9119;50.932;5.342;2023-02-15T07:27:37;3.30;99.90
17988;DHT22;9119;50.932;5.342;2023-02-15T07:30:05;3.50;99.90
17988;DHT22;9119;50.932;5.342;2023-02-15T07:32:32;3.40;99.90
17988;DHT22;9119;50.932;5.342;2023-02-15T07:34:58;3.50;99.90
17988;DHT22;9119;50.932;5.342;2023-02-15T07:37:25;3.50;99.90
17988;DHT22;9119;50.932;5.342;2023-02-15T07:39:51;3.50;99.90
17988;DHT22;9119;50.932;5.342;2023-02-15T07:42:17;3.50;99.90
17988;DHT22;9119;50.932;5.342;2023-02-15T07:44:43;3.50;99.90
17988;DHT22;9119;50.932;5.342;2023-02-15T07:47:09;3.50;99.90
17988;DHT22;9119;50.932;5.342;2023-02-15T07:49:34;3.70;99.90
17988;DHT22;9119;50.932;5.342;2023-02-15T07:52:01;3.60;99.90
17988;DHT22;9119;50.932;5.342;2023-02-15T07:54:28;3.80;99.90
17988;DHT22;9119;50.932;5.342;2023-02-15T07:56:54;3.60;99.90
17988;DHT22;9119;50.932;5.342;2023-02-15T07:59:19;3.70;99.90
17988;DHT22;9119;50.932;5.342;2023-02-15T08:01:45;3.70;99.90
17988;DHT22;9119;50.932;5.342;2023-02-15T08:04:11;4.00;99.90
17988;DHT22;9119;50.932;5.342;2023-02-15T08:06:37;3.80;99.90
17988;DHT22;9119;50.932;5.342;2023-02-15T08:09:07;3.80;99.90
17988;DHT22;9119;50.932;5.342;2023-02-15T08:11:36;3.80;99.90
17988;DHT22;9119;50.932;5.342;2023-02-15T08:14:13;3.90;99.90
17988;DHT22;9119;50.932;5.342;2023-02-15T08:16:54;4.00;99.90
17988;DHT22;9119;50.932;5.342;2023-02-15T08:19:26;4.00;99.90
17988;DHT22;9119;50.932;5.342;2023-02-15T08:21:55;4.10;99.90
17988;DHT22;9119;50.932;5.342;2023-02-15T08:24:26;4.10;99.90
17988;DHT22;9119;50.932;5.342;2023-02-15T08:26:52;4.20;99.90
17988;DHT22;9119;50.932;5.342;2023-02-15T08:29:24;4.30;99.90
17988;DHT22;9119;50.932;5.342;2023-02-15T08:31:53;4.30;99.90
17988;DHT22;9119;50.932;5.342;2023-02-15T08:34:21;4.50;99.90
17988;DHT22;9119;50.932;5.342;2023-02-15T08:36:47;4.70;99.90
17988;DHT22;9119;50.932;5.342;2023-02-15T08:39:14;4.90;99.90
17988;DHT22;9119;50.932;5.342;2023-02-15T08:41:43;5.10;99.90
17988;DHT22;9119;50.932;5.342;2023-02-15T08:44:10;5.30;99.90
17988;DHT22;9119;50.932;5.342;2023-02-15T08:46:41;5.50;99.90
17988;DHT22;9119;50.932;5.342;2023-02-15T08:49:08;5.80;99.90
17988;DHT22;9119;50.932;5.342;2023-02-15T08:51:36;6.20;99.90
17988;DHT22;9119;50.932;5.342;2023-02-15T08:54:05;6.50;99.90
17988;DHT22;9119;50.932;5.342;2023-02-15T08:56:36;6.80;99.90
17988;DHT22;9119;50.932;5.342;2023-02-15T08:59:03;6.80;99.90
17988;DHT22;9119;50.932;5.342;2023-02-15T09:01:31;6.90;99.90
17988;DHT22;9119;50.932;5.342;2023-02-15T09:03:59;7.20;99.90
17988;DHT22;9119;50.932;5.342;2023-02-15T09:06:25;7.50;99.90
17988;DHT22;9119;50.932;5.342;2023-02-15T09:08:51;7.90;99.90
17988;DHT22;9119;50.932;5.342;2023-02-15T09:11:28;8.30;99.90
17988;DHT22;9119;50.932;5.342;2023-02-15T09:14:00;8.60;99.90
17988;DHT22;9119;50.932;5.342;2023-02-15T09:16:29;8.80;99.90
17988;DHT22;9119;50.932;5.342;2023-02-15T09:18:59;8.90;99.90
17988;DHT22;9119;50.932;5.342;2023-02-15T09:21:31;8.60;99.90
17988;DHT22;9119;50.932;5.342;2023-02-15T09:24:02;8.20;99.90
17988;DHT22;9119;50.932;5.342;2023-02-15T09:26:37;7.80;99.90
17988;DHT22;9119;50.932;5.342;2023-02-15T09:29:04;7.70;99.90
17988;DHT22;9119;50.932;5.342;2023-02-15T09:31:39;7.70;99.90
17988;DHT22;9119;50.932;5.342;2023-02-15T09:34:11;7.60;99.90
17988;DHT22;9119;50.932;5.342;2023-02-15T09:36:41;7.50;99.90
17988;DHT22;9119;50.932;5.342;2023-02-15T09:50:43;9.00;99.90
17988;DHT22;9119;50.932;5.342;2023-02-15T10:04:38;8.70;99.90
17988;DHT22;9119;50.932;5.342;2023-02-15T10:19:07;9.10;99.90
17988;DHT22;9119;50.932;5.342;2023-02-15T10:21:30;9.20;99.90
17988;DHT22;9119;50.932;5.342;2023-02-15T10:27:15;9.50;99.90
17988;DHT22;9119;50.932;5.342;2023-02-15T10:29:57;9.60;99.90
17988;DHT22;9119;50.932;5.342;2023-02-15T10:32:27;9.70;99.90
17988;DHT22;9119;50.932;5.342;2023-02-15T10:35:04;9.70;99.90
17988;DHT22;9119;50.932;5.342;2023-02-15T10:43:04;9.70;99.90
17988;DHT22;9119;50.932;5.342;2023-02-15T11:01:45;10.30;99.90
17988;DHT22;9119;50.932;5.342;2023-02-15T11:10:05;10.50;99.90
17988;DHT22;9119;50.932;5.342;2023-02-15T11:12:33;10.50;99.90
17988;DHT22;9119;50.932;5.342;2023-02-15T11:15:11;10.70;99.90
17988;DHT22;9119;50.932;5.342;2023-02-15T11:17:48;10.70;99.90
17988;DHT22;9119;50.932;5.342;2023-02-15T11:22:51;10.90;99.90
17988;DHT22;9119;50.932;5.342;2023-02-15T11:25:38;10.90;99.90
17988;DHT22;9119;50.932;5.342;2023-02-15T11:28:16;11.00;99.90
17988;DHT22;9119;50.932;5.342;2023-02-15T11:30:49;11.00;99.90
17988;DHT22;9119;50.932;5.342;2023-02-15T11:33:25;11.10;99.90
17988;DHT22;9119;50.932;5.342;2023-02-15T11:35:58;11.20;99.90
17988;DHT22;9119;50.932;5.342;2023-02-15T11:38:37;11.30;99.90
17988;DHT22;9119;50.932;5.342;2023-02-15T11:41:18;11.30;99.90
17988;DHT22;9119;50.932;5.342;2023-02-15T11:43:53;11.30;99.90
17988;DHT22;9119;50.932;5.342;2023-02-15T11:46:19;11.40;99.90
17988;DHT22;9119;50.932;5.342;2023-02-15T11:48:47;11.30;99.90
17988;DHT22;9119;50.932;5.342;2023-02-15T11:51:16;11.30;99.90
17988;DHT22;9119;50.932;5.342;2023-02-15T11:53:43;11.40;99.90
17988;DHT22;9119;50.932;5.342;2023-02-15T11:56:18;11.40;99.90
17988;DHT22;9119;50.932;5.342;2023-02-15T11:58:49;11.50;99.90
17988;DHT22;9119;50.932;5.342;2023-02-15T12:01:35;11.50;99.90
17988;DHT22;9119;50.932;5.342;2023-02-15T12:04:17;11.60;99.90
17988;DHT22;9119;50.932;5.342;2023-02-15T12:06:54;11.60;99.90
17988;DHT22;9119;50.932;5.342;2023-02-15T12:09:37;11.60;99.90
17988;DHT22;9119;50.932;5.342;2023-02-15T12:12:30;11.60;99.90
17988;DHT22;9119;50.932;5.342;2023-02-15T12:14:58;11.60;99.90
17988;DHT22;9119;50.932;5.342;2023-02-15T12:17:55;11.70;99.90
17988;DHT22;9119;50.932;5.342;2023-02-15T12:20:21;11.70;99.90
17988;DHT22;9119;50.932;5.342;2023-02-15T12:23:00;11.70;99.90
17988;DHT22;9119;50.932;5.342;2023-02-15T12:25:40;11.80;99.90
17988;DHT22;9119;50.932;5.342;2023-02-15T12:28:42;11.80;99.90
17988;DHT22;9119;50.932;5.342;2023-02-15T12:31:38;11.80;99.90
17988;DHT22;9119;50.932;5.342;2023-02-15T12:34:26;11.80;99.90
17988;DHT22;9119;50.932;5.342;2023-02-15T12:36:56;11.80;99.90
17988;DHT22;9119;50.932;5.342;2023-02-15T12:39:56;12.00;99.90
17988;DHT22;9119;50.932;5.342;2023-02-15T12:42:26;12.10;99.90
17988;DHT22;9119;50.932;5.342;2023-02-15T12:45:00;12.20;99.90
17988;DHT22;9119;50.932;5.342;2023-02-15T12:47:28;12.20;99.90
17988;DHT22;9119;50.932;5.342;2023-02-15T12:52:33;12.20;99.90
17988;DHT22;9119;50.932;5.342;2023-02-15T12:55:28;12.20;99.90
17988;DHT22;9119;50.932;5.342;2023-02-15T12:58:21;12.20;99.90
17988;DHT22;9119;50.932;5.342;2023-02-15T13:00:52;12.20;99.90
17988;DHT22;9119;50.932;5.342;2023-02-15T13:03:26;12.10;99.90
17988;DHT22;9119;50.932;5.342;2023-02-15T13:05:54;12.20;99.90
17988;DHT22;9119;50.932;5.342;2023-02-15T13:08:21;12.20;99.90
17988;DHT22;9119;50.932;5.342;2023-02-15T13:10:59;12.40;99.90
17988;DHT22;9119;50.932;5.342;2023-02-15T13:13:31;12.60;99.90
17988;DHT22;9119;50.932;5.342;2023-02-15T13:16:12;12.70;99.90
17988;DHT22;9119;50.932;5.342;2023-02-15T13:18:46;12.70;99.90
17988;DHT22;9119;50.932;5.342;2023-02-15T13:21:25;12.70;99.90
17988;DHT22;9119;50.932;5.342;2023-02-15T13:24:20;12.70;99.90
17988;DHT22;9119;50.932;5.342;2023-02-15T13:26:47;12.50;99.90
17988;DHT22;9119;50.932;5.342;2023-02-15T13:29:27;12.40;99.90
17988;DHT22;9119;50.932;5.342;2023-02-15T13:32:00;12.40;99.90
17988;DHT22;9119;50.932;5.342;2023-02-15T13:34:33;12.40;99.90
17988;DHT22;9119;50.932;5.342;2023-02-15T13:37:19;12.40;99.90
17988;DHT22;9119;50.932;5.342;2023-02-15T13:40:13;12.40;99.90
17988;DHT22;9119;50.932;5.342;2023-02-15T13:42:53;12.50;99.90
17988;DHT22;9119;50.932;5.342;2023-02-15T13:48:44;12.60;99.90
17988;DHT22;9119;50.932;5.342;2023-02-15T13:51:34;12.60;99.90
17988;DHT22;9119;50.932;5.342;2023-02-15T14:00:21;12.60;99.90
17988;DHT22;9119;50.932;5.342;2023-02-15T14:11:11;12.60;99.90
17988;DHT22;9119;50.932;5.342;2023-02-15T14:16:56;12.60;99.90
17988;DHT22;9119;50.932;5.342;2023-02-15T14:19:32;12.60;99.90
17988;DHT22;9119;50.932;5.342;2023-02-15T14:22:09;12.70;99.90
17988;DHT22;9119;50.932;5.342;2023-02-15T14:24:42;12.70;99.90
17988;DHT22;9119;50.932;5.342;2023-02-15T14:30:23;12.70;99.90
17988;DHT22;9119;50.932;5.342;2023-02-15T14:32:57;12.70;99.90
17988;DHT22;9119;50.932;5.342;2023-02-15T14:35:27;12.70;99.90
17988;DHT22;9119;50.932;5.342;2023-02-15T14:38:21;12.80;99.90
17988;DHT22;9119;50.932;5.342;2023-02-15T14:40:53;12.70;99.90
17988;DHT22;9119;50.932;5.342;2023-02-15T14:43:53;12.70;99.90
17988;DHT22;9119;50.932;5.342;2023-02-15T14:46:34;12.70;99.90
17988;DHT22;9119;50.932;5.342;2023-02-15T14:49:23;12.60;99.90
17988;DHT22;9119;50.932;5.342;2023-02-15T14:56:42;12.50;99.90
17988;DHT22;9119;50.932;5.342;2023-02-15T14:59:20;12.50;99.90
17988;DHT22;9119;50.932;5.342;2023-02-15T15:02:09;12.50;99.90
17988;DHT22;9119;50.932;5.342;2023-02-15T15:07:24;12.30;99.90
17988;DHT22;9119;50.932;5.342;2023-02-15T15:12:50;12.20;99.90
17988;DHT22;9119;50.932;5.342;2023-02-15T15:18:07;12.30;99.90
17988;DHT22;9119;50.932;5.342;2023-02-15T15:20:43;12.20;99.90
17988;DHT22;9119;50.932;5.342;2023-02-15T15:28:08;12.20;99.90
17988;DHT22;9119;50.932;5.342;2023-02-15T15:33:24;12.10;99.90
17988;DHT22;9119;50.932;5.342;2023-02-15T15:41:42;12.00;99.90
17988;DHT22;9119;50.932;5.342;2023-02-15T15:49:43;12.00;99.90
17988;DHT22;9119;50.932;5.342;2023-02-15T15:52:15;11.90;99.90
17988;DHT22;9119;50.932;5.342;2023-02-15T15:54:42;11.90;99.90
17988;DHT22;9119;50.932;5.342;2023-02-15T15:57:35;11.90;99.90
17988;DHT22;9119;50.932;5.342;2023-02-15T16:00:04;11.90;99.90
17988;DHT22;9119;50.932;5.342;2023-02-15T16:02:52;11.90;99.90
17988;DHT22;9119;50.932;5.342;2023-02-15T16:05:18;11.80;99.90
17988;DHT22;9119;50.932;5.342;2023-02-15T16:07:44;11.80;99.90
17988;DHT22;9119;50.932;5.342;2023-02-15T16:10:23;11.80;99.90
17988;DHT22;9119;50.932;5.342;2023-02-15T16:12:49;11.70;99.90
17988;DHT22;9119;50.932;5.342;2023-02-15T16:17:43;11.70;99.90
17988;DHT22;9119;50.932;5.342;2023-02-15T16:20:20;11.60;99.90
17988;DHT22;9119;50.932;5.342;2023-02-15T16:22:49;11.50;99.90
17988;DHT22;9119;50.932;5.342;2023-02-15T16:25:31;11.50;99.90
17988;DHT22;9119;50.932;5.342;2023-02-15T16:28:07;11.40;99.90
17988;DHT22;9119;50.932;5.342;2023-02-15T16:30:35;11.30;99.90
17988;DHT22;9119;50.932;5.342;2023-02-15T16:33:07;11.30;99.90
17988;DHT22;9119;50.932;5.342;2023-02-15T16:35:34;11.30;99.90
17988;DHT22;9119;50.932;5.342;2023-02-15T16:38:01;11.30;99.90
17988;DHT22;9119;50.932;5.342;2023-02-15T16:43:15;11.20;99.90
17988;DHT22;9119;50.932;5.342;2023-02-15T16:45:41;11.20;99.90
17988;DHT22;9119;50.932;5.342;2023-02-15T16:48:14;11.10;99.90
17988;DHT22;9119;50.932;5.342;2023-02-15T16:50:52;11.10;99.90
17988;DHT22;9119;50.932;5.342;2023-02-15T16:53:25;11.10;99.90
17988;DHT22;9119;50.932;5.342;2023-02-15T16:56:02;11.00;99.90
17988;DHT22;9119;50.932;5.342;2023-02-15T16:58:40;11.00;99.90
17988;DHT22;9119;50.932;5.342;2023-02-15T17:01:08;11.00;99.90
17988;DHT22;9119;50.932;5.342;2023-02-15T17:03:35;10.90;99.90
17988;DHT22;9119;50.932;5.342;2023-02-15T17:06:03;10.90;99.90
17988;DHT22;9119;50.932;5.342;2023-02-15T17:08:30;10.80;99.90
17988;DHT22;9119;50.932;5.342;2023-02-15T17:13:26;10.70;99.90
17988;DHT22;9119;50.932;5.342;2023-02-15T17:18:25;10.70;99.90
17988;DHT22;9119;50.932;5.342;2023-02-15T17:20:54;10.70;99.90
17988;DHT22;9119;50.932;5.342;2023-02-15T17:23:30;10.60;99.90
17988;DHT22;9119;50.932;5.342;2023-02-15T17:25:58;10.60;99.90
17988;DHT22;9119;50.932;5.342;2023-02-15T17:28:29;10.50;99.90
17988;DHT22;9119;50.932;5.342;2023-02-15T17:30:56;10.60;99.90
17988;DHT22;9119;50.932;5.342;2023-02-15T17:33:36;10.50;99.90
17988;DHT22;9119;50.932;5.342;2023-02-15T17:36:09;10.40;99.90
17988;DHT22;9119;50.932;5.342;2023-02-15T17:38:36;10.40;99.90
17988;DHT22;9119;50.932;5.342;2023-02-15T17:41:02;10.30;99.90
17988;DHT22;9119;50.932;5.342;2023-02-15T17:43:28;10.30;99.90
17988;DHT22;9119;50.932;5.342;2023-02-15T17:45:54;10.30;99.90
17988;DHT22;9119;50.932;5.342;2023-02-15T17:48:32;10.30;99.90
17988;DHT22;9119;50.932;5.342;2023-02-15T17:51:00;10.30;99.90
17988;DHT22;9119;50.932;5.342;2023-02-15T17:53:26;10.30;99.90
17988;DHT22;9119;50.932;5.342;2023-02-15T17:55:52;10.30;99.90
17988;DHT22;9119;50.932;5.342;2023-02-15T17:58:19;10.30;99.90
17988;DHT22;9119;50.932;5.342;2023-02-15T18:00:50;10.30;99.90
17988;DHT22;9119;50.932;5.342;2023-02-15T18:03:40;10.20;99.90
17988;DHT22;9119;50.932;5.342;2023-02-15T18:06:25;10.20;99.90
17988;DHT22;9119;50.932;5.342;2023-02-15T18:09:15;10.20;99.90
17988;DHT22;9119;50.932;5.342;2023-02-15T18:11:59;10.30;99.90
17988;DHT22;9119;50.932;5.342;2023-02-15T18:14:25;10.30;99.90
17988;DHT22;9119;50.932;5.342;2023-02-15T18:16:51;10.30;99.90
17988;DHT22;9119;50.932;5.342;2023-02-15T18:19:22;10.30;99.90
17988;DHT22;9119;50.932;5.342;2023-02-15T18:21:49;10.20;99.90
17988;DHT22;9119;50.932;5.342;2023-02-15T18:24:22;10.20;99.90
17988;DHT22;9119;50.932;5.342;2023-02-15T18:26:52;10.10;99.90
17988;DHT22;9119;50.932;5.342;2023-02-15T18:29:19;10.00;99.90
17988;DHT22;9119;50.932;5.342;2023-02-15T18:31:48;10.10;99.90
17988;DHT22;9119;50.932;5.342;2023-02-15T18:36:47;10.00;99.90
17988;DHT22;9119;50.932;5.342;2023-02-15T18:41:49;9.90;99.90
17988;DHT22;9119;50.932;5.342;2023-02-15T18:44:14;9.90;99.90
17988;DHT22;9119;50.932;5.342;2023-02-15T18:46:40;9.90;99.90
17988;DHT22;9119;50.932;5.342;2023-02-15T18:49:06;9.90;99.90
17988;DHT22;9119;50.932;5.342;2023-02-15T18:51:31;9.80;99.90
17988;DHT22;9119;50.932;5.342;2023-02-15T18:54:00;9.90;99.90
17988;DHT22;9119;50.932;5.342;2023-02-15T18:56:26;9.80;99.90
17988;DHT22;9119;50.932;5.342;2023-02-15T18:58:52;9.70;99.90
17988;DHT22;9119;50.932;5.342;2023-02-15T19:01:19;9.70;99.90
17988;DHT22;9119;50.932;5.342;2023-02-15T19:03:51;9.60;99.90
17988;DHT22;9119;50.932;5.342;2023-02-15T19:06:19;9.60;99.90
17988;DHT22;9119;50.932;5.342;2023-02-15T19:08:47;9.60;99.90
17988;DHT22;9119;50.932;5.342;2023-02-15T19:11:18;9.60;99.90
17988;DHT22;9119;50.932;5.342;2023-02-15T19:13:45;9.50;99.90
17988;DHT22;9119;50.932;5.342;2023-02-15T19:16:33;9.40;99.90
17988;DHT22;9119;50.932;5.342;2023-02-15T19:19:00;9.40;99.90
17988;DHT22;9119;50.932;5.342;2023-02-15T19:21:28;9.50;99.90
17988;DHT22;9119;50.932;5.342;2023-02-15T19:24:06;9.50;99.90